Time;durP1;ratioP1;P1;durP2;ratioP2;P2;SDS_P1;SDS_P2;PMS_P1;PMS_P2;Temp;Humidity;BMP_temperature;BMP_pressure;BME280_temperature;BME280_humidity;BME280_pressure;Samples;Min_cycle;Max_cycle;Signal;HPM_P1;HPM_P2
2023/12/16 00:00:57;;;;;;;8.67;6.60;;;;;;;7.24;93.93;101479.22;7244218;40;20256;31
2023/12/16 00:06:32;;;;;;;9.15;6.80;;;;;;;7.32;93.78;101487.69;7217295;40;20863;31
2023/12/16 00:12:07;;;;;;;7.05;6.00;;;;;;;7.35;93.08;101490.19;7157209;40;20696;31
2023/12/16 00:17:27;;;;;;;9.53;6.33;;;;;;;7.39;92.76;101491.75;7138481;40;20471;31
2023/12/16 00:23:03;;;;;;;8.13;6.20;;;;;;;7.34;93.63;101485.78;7136230;40;20264;31
2023/12/16 00:28:38;;;;;;;10.07;6.73;;;;;;;7.29;93.16;101477.13;7187813;40;20711;31
2023/12/16 00:33:58;;;;;;;10.40;7.00;;;;;;;7.27;93.30;101483.56;7206124;40;20250;31
2023/12/16 00:39:34;;;;;;;8.20;6.20;;;;;;;7.30;93.55;101478.00;7227511;40;20494;31
2023/12/16 00:44:51;;;;;;;13.67;6.87;;;;;;;7.32;93.22;101484.16;6983900;40;20246;31
2023/12/16 00:50:26;;;;;;;9.90;6.10;;;;;;;7.25;93.08;101467.53;7191322;40;20874;31
2023/12/16 00:56:02;;;;;;;9.50;6.93;;;;;;;7.25;92.76;101478.25;7188621;40;20263;31
2023/12/16 01:01:22;;;;;;;9.67;6.80;;;;;;;7.28;93.08;101494.22;7128438;40;20382;31
2023/12/16 01:06:57;;;;;;;9.10;6.30;;;;;;;7.32;93.29;101500.25;7168683;40;20326;31
2023/12/16 01:12:33;;;;;;;9.83;6.53;;;;;;;7.30;91.88;101508.37;7160645;40;21368;31
2023/12/16 01:17:53;;;;;;;9.73;6.70;;;;;;;7.18;92.07;101501.91;7209309;40;20794;31
2023/12/16 01:23:28;;;;;;;11.50;7.50;;;;;;;7.19;92.80;101505.47;7195831;40;20709;31
2023/12/16 01:29:03;;;;;;;13.60;8.80;;;;;;;7.22;93.64;101500.78;7186559;40;20270;31
2023/12/16 01:39:27;;;;;;;11.03;7.43;;;;;;;7.32;93.09;101502.94;7255840;40;20696;31
2023/12/16 01:50:10;;;;;;;12.60;7.70;;;;;;;7.25;93.01;101508.63;7259489;40;20242;31
2023/12/16 01:55:43;;;;;;;10.27;7.20;;;;;;;7.23;93.27;101502.50;7228276;40;21959;31
2023/12/16 02:01:19;;;;;;;12.70;7.55;;;;;;;7.25;92.73;101516.69;7277547;39;20338;31
2023/12/16 02:06:56;;;;;;;11.27;7.93;;;;;;;7.23;93.71;101518.59;7249633;40;20238;31
2023/12/16 02:12:32;;;;;;;13.90;7.93;;;;;;;7.27;92.40;101529.16;7271555;40;20249;31
2023/12/16 02:18:08;;;;;;;14.60;7.47;;;;;;;7.29;93.30;101530.78;7237909;40;20347;31
2023/12/16 02:23:41;;;;;;;10.20;7.10;;;;;;;7.29;92.16;101535.28;7225391;40;21364;31
2023/12/16 02:29:16;;;;;;;11.50;7.13;;;;;;;7.25;91.92;101542.63;7248192;40;20255;31
2023/12/16 02:34:52;;;;;;;11.30;7.40;;;;;;;7.30;92.17;101540.56;7236394;40;20311;31
2023/12/16 02:40:26;;;;;;;11.00;7.40;;;;;;;7.24;92.29;101538.22;7229209;40;20709;31
2023/12/16 02:46:02;;;;;;;11.50;7.00;;;;;;;7.25;92.19;101538.13;7183957;40;20243;31
2023/12/16 02:51:37;;;;;;;12.20;7.80;;;;;;;7.28;92.51;101544.31;7178248;40;20305;31
2023/12/16 02:57:13;;;;;;;12.10;8.05;;;;;;;7.30;92.36;101558.47;7176494;40;20274;31
2023/12/16 03:03:10;;;;;;;11.35;7.60;;;;;;;7.28;92.45;101571.12;7176515;40;20400;31
2023/12/16 03:13:51;;;;;;;11.10;7.13;;;;;;;7.24;93.22;101579.31;7195411;40;20274;31
2023/12/16 03:24:31;;;;;;;16.30;10.40;;;;;;;7.22;92.99;101577.69;7261581;40;20268;31
2023/12/16 03:35:11;;;;;;;12.57;8.47;;;;;;;7.15;93.45;101570.97;7255877;40;20408;31
2023/12/16 03:45:37;;;;;;;12.73;7.93;;;;;;;7.22;92.57;101558.91;7289452;39;20264;31
2023/12/16 03:56:15;;;;;;;15.84;9.00;;;;;;;7.17;93.48;101548.44;7306427;39;20491;31
2023/12/16 04:01:37;;;;;;;12.73;8.57;;;;;;;7.16;92.29;101556.56;7317740;39;20340;31
2023/12/16 04:07:00;;;;;;;16.05;9.00;;;;;;;7.12;92.57;101568.44;7319376;39;20303;31
2023/12/16 04:12:33;;;;;;;12.13;8.70;;;;;;;7.04;92.27;101560.81;7295361;40;20369;31
2023/12/16 04:23:17;;;;;;;12.43;8.17;;;;;;;6.96;92.45;101549.66;7225363;40;20257;31
2023/12/16 04:33:56;;;;;;;12.10;8.10;;;;;;;6.91;92.12;101548.19;7196642;40;20518;31
2023/12/16 04:44:21;;;;;;;9.53;6.93;;;;;;;6.86;93.15;101567.19;7267608;40;20728;31
2023/12/16 04:55:01;;;;;;;11.00;7.10;;;;;;;6.73;92.05;101555.44;7236915;40;20328;31
2023/12/16 05:00:22;;;;;;;12.40;7.50;;;;;;;6.79;92.70;101563.16;7217422;40;20270;31
2023/12/16 05:05:56;;;;;;;11.20;6.15;;;;;;;6.72;91.34;101556.38;7239984;40;20324;31
2023/12/16 05:11:32;;;;;;;9.10;5.90;;;;;;;6.66;92.14;101564.75;7202737;40;20254;31
2023/12/16 05:17:09;;;;;;;11.03;6.43;;;;;;;6.66;92.67;101562.09;7186117;40;20367;31
2023/12/16 05:22:43;;;;;;;13.45;5.55;;;;;;;6.72;91.76;101553.69;7199499;40;21306;31
2023/12/16 05:28:21;;;;;;;11.77;5.40;;;;;;;6.62;90.45;101555.16;7149353;40;20364;31
2023/12/16 05:33:55;;;;;;;11.50;5.30;;;;;;;6.56;91.41;101555.47;7137925;41;20357;31
2023/12/16 05:39:16;;;;;;;10.37;6.17;;;;;;;6.58;91.87;101559.78;7131125;40;20244;31
2023/12/16 05:44:52;;;;;;;11.27;6.67;;;;;;;6.54;91.37;101573.47;7174120;40;20245;31
2023/12/16 05:50:12;;;;;;;12.40;6.75;;;;;;;6.52;91.14;101572.69;7185988;40;20327;31
2023/12/16 05:55:33;;;;;;;9.20;5.87;;;;;;;6.49;90.86;101578.22;7197213;40;20261;31
2023/12/16 06:01:10;;;;;;;8.47;5.93;;;;;;;6.45;90.83;101574.81;7234918;40;20269;31
2023/12/16 06:06:46;;;;;;;10.10;6.60;;;;;;;6.36;90.67;101579.81;7214180;40;20254;31
2023/12/16 06:17:26;;;;;;;10.57;5.90;;;;;;;6.37;90.32;101586.88;7222666;40;20906;31
2023/12/16 06:27:51;;;;;;;8.75;4.95;;;;;;;6.45;89.62;101606.94;7267466;40;20530;31
2023/12/16 06:38:30;;;;;;;10.20;5.50;;;;;;;6.41;90.75;101601.84;7282551;39;20321;31
2023/12/16 06:43:50;;;;;;;11.07;5.10;;;;;;;6.42;90.82;101606.25;7299743;39;20258;31
2023/12/16 06:49:10;;;;;;;8.60;5.30;;;;;;;6.44;90.38;101605.25;7263713;40;20309;31
2023/12/16 06:59:51;;;;;;;9.60;4.97;;;;;;;6.48;90.42;101619.34;7260164;40;20285;31
2023/12/16 07:10:16;;;;;;;8.90;5.20;;;;;;;6.49;90.59;101629.97;7244295;40;21409;31
2023/12/16 07:15:50;;;;;;;8.35;4.95;;;;;;;6.41;90.05;101634.84;7275585;39;20374;31
2023/12/16 07:21:27;;;;;;;8.10;5.10;;;;;;;6.34;90.43;101653.06;7235663;40;21708;31
2023/12/16 07:27:00;;;;;;;9.70;5.40;;;;;;;6.37;90.97;101645.78;7237080;40;20371;31
2023/12/16 07:32:36;;;;;;;8.50;4.80;;;;;;;6.37;90.75;101641.31;7180288;40;21427;31
2023/12/16 07:38:09;;;;;;;8.77;4.83;;;;;;;6.44;90.03;101631.16;7177997;40;21011;31
2023/12/16 07:48:49;;;;;;;7.10;4.43;;;;;;;6.43;89.95;101629.41;7200468;40;20279;31
2023/12/16 07:59:30;;;;;;;9.70;4.90;;;;;;;6.46;90.12;101650.69;7213256;40;20424;31
2023/12/16 08:10:25;;;;;;;10.60;5.10;;;;;;;6.45;89.94;101654.31;7278493;39;20413;31
2023/12/16 08:15:43;;;;;;;9.62;5.40;;;;;;;6.47;89.99;101655.97;7079300;40;20229;31
2023/12/16 08:21:17;;;;;;;9.97;5.00;;;;;;;6.45;90.71;101657.00;7220675;40;20254;31
2023/12/16 08:26:54;;;;;;;10.65;4.85;;;;;;;6.47;90.53;101657.78;7159008;40;20274;31
2023/12/16 08:32:13;;;;;;;11.20;4.93;;;;;;;6.51;89.74;101664.69;7197147;40;20420;31
2023/12/16 08:37:48;;;;;;;9.40;4.33;;;;;;;6.44;89.44;101687.41;7221106;40;20327;31
2023/12/16 08:43:24;;;;;;;7.60;4.70;;;;;;;6.42;89.60;101686.59;7221680;40;20238;31
2023/12/16 08:48:59;;;;;;;11.40;4.75;;;;;;;6.41;89.57;101687.53;7177370;40;20274;31
2023/12/16 08:59:40;;;;;;;9.80;4.60;;;;;;;6.40;89.27;101685.84;7116947;40;20282;31
2023/12/16 09:10:20;;;;;;;7.65;3.90;;;;;;;6.50;89.68;101714.72;7213656;40;20409;31
2023/12/16 09:21:00;;;;;;;8.60;4.60;;;;;;;6.65;89.24;101727.34;7284204;40;20264;31
2023/12/16 09:26:21;;;;;;;10.40;4.00;;;;;;;6.79;89.26;101732.88;7256526;40;20261;31
2023/12/16 09:31:42;;;;;;;10.53;3.90;;;;;;;6.88;88.91;101730.66;7247580;40;20227;31
2023/12/16 09:37:16;;;;;;;11.17;4.80;;;;;;;6.92;88.64;101724.16;7197865;40;20867;31
2023/12/16 09:42:52;;;;;;;17.83;6.87;;;;;;;7.00;89.02;101736.22;7217204;40;20784;31
2023/12/16 09:48:27;;;;;;;11.10;5.20;;;;;;;7.05;88.04;101742.22;7214506;40;20244;31
2023/12/16 09:54:03;;;;;;;9.10;4.45;;;;;;;7.10;88.42;101740.16;7238037;40;20242;31
2023/12/16 09:59:38;;;;;;;12.00;4.00;;;;;;;7.17;87.83;101719.22;7200246;40;20377;31
2023/12/16 10:05:13;;;;;;;7.97;4.23;;;;;;;7.29;87.92;101721.22;7179449;40;20247;31
2023/12/16 10:10:50;;;;;;;6.05;2.80;;;;;;;7.40;84.81;101728.69;7192109;40;20856;31
2023/12/16 10:16:24;;;;;;;7.97;2.60;;;;;;;7.54;84.20;101728.81;7201389;40;20379;31
2023/12/16 10:22:00;;;;;;;6.10;2.80;;;;;;;7.60;82.50;101717.72;7187596;40;20336;31
2023/12/16 10:27:36;;;;;;;10.60;3.15;;;;;;;7.70;81.54;101702.84;7191443;40;20796;31
2023/12/16 10:33:11;;;;;;;8.73;2.70;;;;;;;7.81;81.04;101702.25;7180891;40;22218;31
2023/12/16 10:38:32;;;;;;;7.03;2.77;;;;;;;7.90;80.55;101694.50;7148195;40;20857;31
2023/12/16 10:49:09;;;;;;;5.50;2.60;;;;;;;8.01;79.98;101700.12;7176192;40;20258;31
2023/12/16 10:54:44;;;;;;;5.87;2.60;;;;;;;8.11;79.28;101693.28;7197488;40;20901;31
2023/12/16 11:00:19;;;;;;;7.53;2.93;;;;;;;8.22;79.00;101684.56;7159071;40;20696;31
2023/12/16 11:05:55;;;;;;;4.95;1.90;;;;;;;8.28;77.66;101694.09;7200730;40;20779;31
2023/12/16 11:11:28;;;;;;;6.40;2.30;;;;;;;8.33;78.35;101689.34;7182362;40;20457;31
2023/12/16 11:17:02;;;;;;;7.93;2.30;;;;;;;8.37;77.09;101693.59;7148353;40;20886;31
2023/12/16 11:22:36;;;;;;;5.65;2.60;;;;;;;8.46;76.09;101687.66;7112149;40;20715;31
2023/12/16 11:27:58;;;;;;;6.70;3.30;;;;;;;8.53;76.84;101683.63;7099900;40;20256;31
2023/12/16 11:33:33;;;;;;;9.50;2.90;;;;;;;8.58;76.09;101660.91;7129096;40;20837;31
2023/12/16 11:39:09;;;;;;;6.23;2.30;;;;;;;8.62;72.83;101658.03;7183998;40;20698;31
2023/12/16 11:44:59;;;;;;;4.80;2.00;;;;;;;8.62;68.09;101658.88;7177358;40;20271;31
2023/12/16 11:55:39;;;;;;;9.37;2.17;;;;;;;8.85;72.91;101677.19;7207965;40;20348;31
2023/12/16 12:01:16;;;;;;;5.03;2.00;;;;;;;8.95;69.43;101672.94;7245457;40;20318;31
2023/12/16 12:06:36;;;;;;;8.27;2.43;;;;;;;8.83;67.51;101670.16;7205533;40;20798;31
2023/12/16 12:12:06;;;;;;;6.50;2.50;;;;;;;8.57;67.56;101648.41;7216742;40;20708;31
2023/12/16 12:17:41;;;;;;;6.45;2.20;;;;;;;8.62;67.08;101649.97;7197505;40;20319;31
2023/12/16 12:23:01;;;;;;;9.93;3.33;;;;;;;8.64;70.04;101648.06;7150071;40;20836;31
2023/12/16 12:33:39;;;;;;;5.23;2.47;;;;;;;8.64;69.82;101632.78;7236853;40;20315;31
2023/12/16 12:39:14;;;;;;;6.60;2.07;;;;;;;8.53;66.33;101625.38;7229149;39;20751;31
2023/12/16 12:44:36;;;;;;;12.20;2.30;;;;;;;8.55;69.73;101609.16;7236891;40;20867;31
2023/12/16 12:50:11;;;;;;;7.87;2.43;;;;;;;8.62;69.35;101612.31;7255710;40;20478;31
2023/12/16 12:55:31;;;;;;;8.33;2.43;;;;;;;8.63;70.86;101600.63;7213231;40;20257;31
2023/12/16 13:01:06;;;;;;;5.87;1.90;;;;;;;8.53;69.39;101592.25;7241605;40;20692;31
2023/12/16 13:06:43;;;;;;;5.90;2.50;;;;;;;8.52;70.30;101571.72;7156939;40;20757;31
2023/12/16 13:12:04;;;;;;;8.03;2.40;;;;;;;8.51;70.85;101564.63;7196466;40;20306;31
2023/12/16 13:17:24;;;;;;;4.10;2.25;;;;;;;8.70;70.75;101572.37;7213569;40;20350;31
2023/12/16 13:23:01;;;;;;;7.90;2.25;;;;;;;8.74;71.38;101569.41;7256499;40;20443;31
2023/12/16 13:33:25;;;;;;;7.07;2.33;;;;;;;8.88;72.39;101545.19;7235192;40;20273;31
2023/12/16 13:44:06;;;;;;;6.90;2.23;;;;;;;8.86;71.43;101541.72;7262796;39;20266;31
2023/12/16 13:49:41;;;;;;;5.80;2.20;;;;;;;8.88;71.16;101542.50;7275749;40;20727;31
2023/12/16 13:55:02;;;;;;;5.23;2.20;;;;;;;8.90;72.44;101537.03;7216330;40;20321;31
2023/12/16 14:00:38;;;;;;;7.60;2.70;;;;;;;8.83;71.26;101531.19;7197655;40;20810;31
2023/12/16 14:05:58;;;;;;;6.27;2.60;;;;;;;8.83;72.12;101536.56;7139813;40;20229;31
2023/12/16 14:11:18;;;;;;;12.03;2.40;;;;;;;8.74;71.80;101537.12;7143397;40;20384;31
2023/12/16 14:16:53;;;;;;;6.47;2.80;;;;;;;8.67;72.14;101525.06;7165705;40;20326;31
2023/12/16 14:22:13;;;;;;;5.90;2.50;;;;;;;8.66;72.37;101522.47;7166766;40;20332;31
2023/12/16 14:27:53;;;;;;;5.57;2.40;;;;;;;8.61;72.25;101520.06;7275148;40;20755;31
2023/12/16 14:33:29;;;;;;;8.30;2.70;;;;;;;8.59;72.55;101511.25;7259921;40;20709;31
2023/12/16 14:38:49;;;;;;;6.80;2.60;;;;;;;8.57;71.96;101515.84;7196879;40;20380;31
2023/12/16 14:44:25;;;;;;;8.85;2.85;;;;;;;8.48;72.08;101525.34;7190438;40;20249;31
2023/12/16 14:50:02;;;;;;;11.10;3.30;;;;;;;8.49;72.92;101521.72;7091990;41;20719;31
2023/12/16 14:55:33;;;;;;;8.83;4.33;;;;;;;8.50;73.80;101520.75;6912327;41;21598;31
2023/12/16 15:00:59;;;;;;;6.57;3.90;;;;;;;8.44;72.76;101517.56;7081294;41;20248;31
2023/12/16 15:06:36;;;;;;;9.20;4.13;;;;;;;8.33;73.19;101518.25;7116897;40;20270;31
2023/12/16 15:12:13;;;;;;;9.90;6.23;;;;;;;8.33;74.06;101509.34;7152927;40;20247;31
2023/12/16 15:17:33;;;;;;;6.50;4.18;;;;;;;8.34;74.07;101514.59;7179494;40;22056;31
2023/12/16 15:23:07;;;;;;;11.30;5.30;;;;;;;8.26;74.31;101508.81;7218114;40;20348;31
2023/12/16 15:28:27;;;;;;;8.50;3.30;;;;;;;8.19;74.65;101517.34;7192569;40;20770;31
2023/12/16 15:33:47;;;;;;;6.00;3.00;;;;;;;8.04;74.83;101520.00;7219990;40;20712;31
2023/12/16 15:39:24;;;;;;;5.95;2.75;;;;;;;7.86;74.93;101521.13;7212743;40;20304;31
2023/12/16 15:44:59;;;;;;;4.70;2.15;;;;;;;7.67;75.50;101516.00;7266335;40;20731;31
2023/12/16 15:50:19;;;;;;;5.23;3.07;;;;;;;7.63;76.34;101516.28;7230740;40;22178;31
2023/12/16 15:55:56;;;;;;;6.55;2.80;;;;;;;7.44;76.59;101513.81;7188039;40;20253;31
2023/12/16 16:01:16;;;;;;;8.20;3.95;;;;;;;7.34;77.01;101507.25;7176920;40;20706;31
2023/12/16 16:06:37;;;;;;;10.30;4.50;;;;;;;7.24;76.73;101506.91;7237353;40;20241;31
2023/12/16 16:12:14;;;;;;;12.88;4.55;;;;;;;7.06;77.51;101501.75;7277827;40;20770;31
2023/12/16 16:17:49;;;;;;;8.95;4.40;;;;;;;6.97;77.87;101499.59;7204705;40;20292;31
2023/12/16 16:23:09;;;;;;;7.67;4.07;;;;;;;6.89;77.71;101500.00;7180755;40;20931;31
2023/12/16 16:28:45;;;;;;;7.40;3.85;;;;;;;6.78;78.18;101491.72;7158312;40;20862;31
2023/12/16 16:34:20;;;;;;;7.20;3.70;;;;;;;6.73;78.45;101493.78;7180304;40;20963;31
2023/12/16 16:44:58;;;;;;;6.70;3.83;;;;;;;6.69;78.74;101492.22;7181078;40;20419;31
2023/12/16 16:55:23;;;;;;;8.10;4.00;;;;;;;6.66;78.36;101497.78;7244953;40;20282;31
2023/12/16 17:06:01;;;;;;;10.37;4.27;;;;;;;6.45;79.21;101507.84;7283442;40;20277;31
2023/12/16 17:11:36;;;;;;;7.00;3.60;;;;;;;6.36;78.69;101518.22;7257233;40;20372;31
2023/12/16 17:17:11;;;;;;;7.47;3.70;;;;;;;6.31;79.63;101519.31;7237153;40;20726;31
2023/12/16 17:22:47;;;;;;;10.00;4.50;;;;;;;6.21;79.57;101512.72;7216644;40;20253;31
2023/12/16 17:28:22;;;;;;;10.80;4.47;;;;;;;6.15;79.60;101510.34;7206706;40;20856;31
2023/12/16 17:33:57;;;;;;;9.95;3.60;;;;;;;6.13;79.28;101516.75;7225942;40;20866;31
2023/12/16 17:39:31;;;;;;;9.83;4.40;;;;;;;5.96;79.83;101523.00;7238769;40;20385;31
2023/12/16 17:45:06;;;;;;;8.87;4.47;;;;;;;5.97;79.92;101523.88;7172343;40;20758;31
2023/12/16 17:50:41;;;;;;;9.10;3.57;;;;;;;5.93;79.29;101517.78;7201407;40;20852;31
2023/12/16 17:56:16;;;;;;;11.63;4.20;;;;;;;5.87;79.22;101527.03;7203677;40;20706;31
2023/12/16 18:01:51;;;;;;;10.10;4.30;;;;;;;5.68;79.82;101534.22;7149001;40;20868;31
2023/12/16 18:07:25;;;;;;;7.87;3.67;;;;;;;5.65;80.55;101506.78;7199249;40;20722;31
2023/12/16 18:13:02;;;;;;;6.70;3.70;;;;;;;5.65;80.24;101512.13;7177234;40;20754;31
2023/12/16 18:18:22;;;;;;;8.16;4.08;;;;;;;5.65;80.77;101526.38;7150239;40;20755;31
2023/12/16 18:23:42;;;;;;;6.50;3.90;;;;;;;5.49;80.48;101524.53;7139421;40;20703;31
2023/12/16 18:29:18;;;;;;;8.85;3.60;;;;;;;5.37;81.03;101524.19;7144740;40;20248;31
2023/12/16 18:34:39;;;;;;;11.43;3.83;;;;;;;5.38;80.80;101517.91;7147972;40;20792;31
2023/12/16 18:40:14;;;;;;;9.10;3.80;;;;;;;5.38;81.18;101517.91;7149947;40;20310;31
2023/12/16 18:45:52;;;;;;;6.90;3.55;;;;;;;5.42;80.76;101523.97;7165653;40;20243;31
2023/12/16 18:51:11;;;;;;;10.75;4.15;;;;;;;5.44;80.87;101524.78;7183912;40;20833;31
2023/12/16 18:56:47;;;;;;;10.40;3.50;;;;;;;5.33;80.46;101532.44;7226892;40;20257;31
2023/12/16 19:02:26;;;;;;;7.37;3.20;;;;;;;5.24;80.71;101543.59;7188793;40;20271;31
2023/12/16 19:07:43;;;;;;;9.90;3.27;;;;;;;5.23;80.94;101564.12;7206175;40;20712;31
2023/12/16 19:13:03;;;;;;;12.10;3.45;;;;;;;5.13;80.88;101551.28;7238923;40;20719;31
2023/12/16 19:18:39;;;;;;;8.90;3.55;;;;;;;4.93;80.57;101573.59;7283963;39;20758;31
2023/12/16 19:24:15;;;;;;;7.62;3.28;;;;;;;4.96;81.60;101576.13;7258188;40;20268;31
2023/12/16 19:29:51;;;;;;;6.23;3.33;;;;;;;4.94;80.49;101580.69;7227816;40;20285;31
2023/12/16 19:35:28;;;;;;;8.35;4.30;;;;;;;4.86;81.18;101583.72;7128469;40;20275;31
2023/12/16 19:45:54;;;;;;;7.45;3.25;;;;;;;4.77;80.91;101591.31;7201706;40;20269;31
2023/12/16 19:51:29;;;;;;;14.25;5.60;;;;;;;4.66;81.48;101593.59;7259530;39;20246;31
2023/12/16 19:56:50;;;;;;;6.97;3.20;;;;;;;4.69;81.87;101601.47;7230487;40;20242;31
2023/12/16 20:02:10;;;;;;;5.45;3.50;;;;;;;4.61;81.42;101591.12;7217998;40;20257;31
2023/12/16 20:07:46;;;;;;;10.15;4.10;;;;;;;4.61;81.94;101583.09;7196190;40;20505;31
2023/12/16 20:13:21;;;;;;;6.83;3.30;;;;;;;4.62;81.49;101578.63;7191555;40;20718;31
2023/12/16 20:18:57;;;;;;;7.35;3.83;;;;;;;4.50;81.87;101575.59;7208803;40;20270;31
2023/12/16 20:24:48;;;;;;;14.57;7.70;;;;;;;4.41;81.93;101549.31;7259018;40;20292;31
2023/12/16 20:30:24;;;;;;;8.20;4.60;;;;;;;4.35;81.59;101536.25;7195593;40;20273;31
2023/12/16 20:41:04;;;;;;;8.70;4.20;;;;;;;4.38;82.10;101549.47;7169536;40;20258;31
2023/12/16 20:46:39;;;;;;;9.07;5.23;;;;;;;4.42;82.67;101551.06;7194038;40;20310;31
2023/12/16 20:52:02;;;;;;;12.55;4.30;;;;;;;4.53;82.36;101555.91;7196141;40;20258;31
2023/12/16 20:57:38;;;;;;;11.43;4.20;;;;;;;4.51;82.89;101553.31;7203585;40;20249;31
2023/12/16 21:02:58;;;;;;;9.07;5.10;;;;;;;4.53;82.30;101555.91;7165770;40;20254;31
2023/12/16 21:08:34;;;;;;;7.00;4.20;;;;;;;4.28;82.22;101549.94;7186588;40;20251;31
2023/12/16 21:14:11;;;;;;;11.88;6.90;;;;;;;4.24;82.90;101543.88;7182273;40;20332;31
2023/12/16 21:19:32;;;;;;;9.22;4.54;;;;;;;4.20;82.41;101539.63;7255141;40;20244;31
2023/12/16 21:24:52;;;;;;;6.30;3.40;;;;;;;4.20;83.06;101547.62;7268840;40;20272;31
2023/12/16 21:30:29;;;;;;;6.43;3.60;;;;;;;4.26;82.76;101538.44;7239843;40;20619;31
2023/12/16 21:36:04;;;;;;;8.73;3.60;;;;;;;4.18;82.63;101522.78;7028868;40;21156;31
2023/12/16 21:41:40;;;;;;;9.60;3.75;;;;;;;4.17;82.70;101530.88;7195588;40;20257;31
2023/12/16 21:47:17;;;;;;;7.23;3.87;;;;;;;4.07;82.52;101530.44;7177420;40;20394;31
2023/12/16 21:52:38;;;;;;;8.70;3.30;;;;;;;4.08;84.19;101542.84;7159390;40;20327;31
2023/12/16 21:57:59;;;;;;;8.45;3.70;;;;;;;4.17;83.31;101542.41;7196236;40;20379;31
2023/12/16 22:03:35;;;;;;;10.23;3.13;;;;;;;4.16;83.72;101524.69;7249796;40;20241;31
2023/12/16 22:09:11;;;;;;;9.50;4.87;;;;;;;4.08;82.42;101525.00;7226388;40;20352;31
2023/12/16 22:19:50;;;;;;;8.17;5.60;;;;;;;3.97;84.15;101542.44;7233786;40;20265;31
2023/12/16 22:30:30;;;;;;;6.63;3.50;;;;;;;4.01;83.28;101530.69;7234955;40;20267;31
2023/12/16 22:36:07;;;;;;;9.65;3.70;;;;;;;3.94;83.61;101516.78;7318109;39;20277;31
2023/12/16 22:41:43;;;;;;;6.03;3.63;;;;;;;3.77;83.49;101495.31;7287721;39;20266;31
2023/12/16 22:47:00;;;;;;;8.47;3.93;;;;;;;3.72;84.24;101513.31;7258834;39;20274;31
2023/12/16 22:52:36;;;;;;;9.17;3.90;;;;;;;3.70;83.48;101506.28;7221133;40;20242;31
2023/12/16 22:57:58;;;;;;;8.57;3.67;;;;;;;3.80;84.07;101499.62;7202774;40;20259;31
2023/12/16 23:03:33;;;;;;;13.03;4.87;;;;;;;3.90;83.94;101493.84;7192816;40;20267;31
2023/12/16 23:14:14;;;;;;;6.63;3.90;;;;;;;3.88;84.09;101486.81;7263039;40;20257;31
2023/12/16 23:24:54;;;;;;;10.50;4.30;;;;;;;3.90;84.91;101495.63;7215882;40;20314;31
2023/12/16 23:30:31;;;;;;;10.13;4.20;;;;;;;3.94;85.02;101494.56;7198025;40;20247;31
2023/12/16 23:35:52;;;;;;;6.47;4.30;;;;;;;4.01;84.81;101493.34;7170636;40;20257;31
2023/12/16 23:41:29;;;;;;;8.57;3.97;;;;;;;3.95;84.85;101494.47;7216219;40;20242;31
2023/12/16 23:47:03;;;;;;;7.30;3.95;;;;;;;3.93;85.21;101501.69;7129856;40;20255;31
2023/12/16 23:52:38;;;;;;;9.67;4.13;;;;;;;3.95;85.23;101507.81;7133481;40;20257;31
2023/12/16 23:57:59;;;;;;;8.65;3.50;;;;;;;3.95;84.15;101498.97;7168731;40;20297;31
